Lublin Airport


Codes: EPLB/LUZ
Name: Lublin Airport
City: Lublin
Country: Poland
Elevation: 0 ft.

Photos at Lublin Airport


   Photos courtesy of SpottingLog. You can add your own sightings and photos by signing up for a free trial today.



No photos found.

Weather at Lublin Airport


Time (UTC)DescriptionTempratureWindCloud coverageVisibilityPressureHumidity
25-Jun-2024 15:00Broken Clouds23°C7 mph, E73%10000m1018hPa59%
25-Jun-2024 18:00Overcast Clouds21°C7 mph, E85%10000m1019hPa70%
25-Jun-2024 21:00Scattered Clouds16°C7 mph, E36%10000m1020hPa89%
26-Jun-2024 00:00Few Clouds15°C7 mph, E18%10000m1020hPa91%
26-Jun-2024 03:00Clear Sky14°C7 mph, E0%10000m1019hPa91%
26-Jun-2024 06:00Clear Sky20°C11 mph, E1%10000m1019hPa67%
26-Jun-2024 09:00Broken Clouds24°C11 mph, SE71%10000m1018hPa54%
26-Jun-2024 12:00Broken Clouds26°C13 mph, SE84%10000m1017hPa49%
26-Jun-2024 15:00Broken Clouds25°C11 mph, SE82%10000m1016hPa55%
26-Jun-2024 18:00Broken Clouds21°C9 mph, SE52%10000m1015hPa75%
26-Jun-2024 21:00Overcast Clouds17°C9 mph, SE96%10000m1015hPa77%
27-Jun-2024 00:00Overcast Clouds16°C9 mph, SE87%10000m1015hPa81%
27-Jun-2024 03:00Overcast Clouds16°C9 mph, E100%10000m1014hPa78%
27-Jun-2024 06:00Overcast Clouds20°C13 mph, SE100%10000m1014hPa69%
27-Jun-2024 09:00Overcast Clouds24°C16 mph, SE100%10000m1014hPa58%
27-Jun-2024 12:00Overcast Clouds26°C16 mph, SE100%10000m1014hPa53%
27-Jun-2024 15:00Overcast Clouds26°C13 mph, SE100%10000m1013hPa57%
27-Jun-2024 18:00Broken Clouds22°C9 mph, SE84%10000m1013hPa72%
27-Jun-2024 21:00Scattered Clouds19°C11 mph, SE46%10000m1014hPa74%
28-Jun-2024 00:00Broken Clouds18°C9 mph, SE73%10000m1014hPa75%
28-Jun-2024 03:00Overcast Clouds17°C9 mph, SE100%10000m1014hPa72%
28-Jun-2024 06:00Overcast Clouds22°C13 mph, SE93%10000m1014hPa61%
28-Jun-2024 09:00Broken Clouds26°C11 mph, SE56%10000m1015hPa55%
28-Jun-2024 12:00Broken Clouds29°C7 mph, S51%10000m1014hPa51%
28-Jun-2024 15:00Broken Clouds30°C2 mph, S56%10000m1013hPa47%
28-Jun-2024 18:00Light Rain22°C9 mph, NW66%3640m1015hPa83%
28-Jun-2024 21:00Moderate Rain19°C7 mph, S99%10000m1017hPa96%
29-Jun-2024 00:00Light Rain19°C4 mph, SW93%10000m1016hPa94%
29-Jun-2024 03:00Light Rain19°C4 mph, SW100%10000m1016hPa96%
29-Jun-2024 06:00Light Rain22°C7 mph, NE69%10000m1017hPa82%
29-Jun-2024 09:00Clear Sky27°C7 mph, N2%10000m1017hPa62%
29-Jun-2024 12:00Clear Sky29°C7 mph, N8%10000m1016hPa51%
29-Jun-2024 15:00Broken Clouds28°C7 mph, NE64%10000m1015hPa58%
29-Jun-2024 18:00Broken Clouds24°C4 mph, SE78%10000m1015hPa76%
29-Jun-2024 21:00Scattered Clouds21°C7 mph, E34%10000m1015hPa83%
30-Jun-2024 00:00Few Clouds20°C7 mph, SE20%10000m1014hPa89%
30-Jun-2024 03:00Clear Sky20°C7 mph, SE7%10000m1013hPa92%
30-Jun-2024 06:00Clear Sky25°C11 mph, SE5%10000m1012hPa67%
30-Jun-2024 09:00Few Clouds29°C11 mph, S12%10000m1010hPa55%
30-Jun-2024 12:00Scattered Clouds32°C13 mph, S37%10000m1009hPa46%